createdAt,value
2023-03-11T00:00:36.181Z,96.50
2023-03-11T00:03:05.256Z,96.70
2023-03-11T00:05:39.175Z,96.80
2023-03-11T00:08:09.379Z,96.80
2023-03-11T00:10:42.734Z,97.00
2023-03-11T00:13:12.616Z,97.00
2023-03-11T00:15:40.469Z,97.40
2023-03-11T00:18:07.438Z,97.30
2023-03-11T00:20:37.946Z,97.40
2023-03-11T00:23:07.485Z,97.40
2023-03-11T00:25:36.886Z,97.50
2023-03-11T00:28:05.487Z,97.60
2023-03-11T00:30:32.439Z,97.60
2023-03-11T00:33:00.238Z,97.50
2023-03-11T00:35:31.420Z,97.50
2023-03-11T00:38:05.721Z,97.40
2023-03-11T00:40:34.674Z,97.50
2023-03-11T00:43:03.652Z,97.60
2023-03-11T00:45:31.206Z,97.50
2023-03-11T00:47:58.233Z,97.50
2023-03-11T00:50:32.801Z,97.50
2023-03-11T00:53:00.460Z,97.50
2023-03-11T00:55:33.007Z,97.50
2023-03-11T00:58:06.480Z,97.80
2023-03-11T01:00:40.294Z,97.40
2023-03-11T01:03:07.281Z,97.50
2023-03-11T01:05:34.865Z,97.40
2023-03-11T01:08:03.547Z,97.50
2023-03-11T01:10:35.926Z,97.40
2023-03-11T01:13:04.581Z,97.40
2023-03-11T01:15:36.088Z,97.40
2023-03-11T01:18:04.566Z,97.40
2023-03-11T01:20:33.968Z,97.40
2023-03-11T01:23:00.961Z,97.40
2023-03-11T01:25:29.018Z,97.30
2023-03-11T01:27:58.620Z,97.40
2023-03-11T01:30:27.419Z,97.40
2023-03-11T01:32:56.081Z,97.40
2023-03-11T01:35:26.365Z,97.40
2023-03-11T01:37:54.101Z,97.40
2023-03-11T01:40:35.977Z,97.50
2023-03-11T01:43:40.020Z,97.50
2023-03-11T01:47:00.059Z,97.50
2023-03-11T01:49:33.073Z,97.60
2023-03-11T01:52:07.868Z,97.60
2023-03-11T01:54:42.069Z,97.70
2023-03-11T01:57:13.689Z,97.60
2023-03-11T01:59:48.872Z,97.70
2023-03-11T02:02:53.161Z,97.80
2023-03-11T02:05:23.208Z,97.70
2023-03-11T02:07:53.873Z,97.70
2023-03-11T02:10:22.631Z,97.60
2023-03-11T02:12:50.871Z,97.60
2023-03-11T02:15:26.058Z,97.60
2023-03-11T02:17:56.265Z,97.50
2023-03-11T02:20:40.897Z,97.50
2023-03-11T02:23:14.262Z,97.50
2023-03-11T02:26:07.565Z,97.50
2023-03-11T02:28:36.725Z,97.40
2023-03-11T02:31:03.795Z,97.40
2023-03-11T02:33:33.053Z,97.30
2023-03-11T02:35:59.984Z,97.40
2023-03-11T02:38:27.030Z,97.30
2023-03-11T02:41:01.416Z,97.60
2023-03-11T02:43:38.389Z,97.30
2023-03-11T02:46:07.292Z,97.30
2023-03-11T02:48:35.471Z,97.30
2023-03-11T02:51:02.857Z,97.30
2023-03-11T02:53:37.431Z,97.30
2023-03-11T02:56:05.531Z,97.30
2023-03-11T02:58:33.874Z,97.30
2023-03-11T03:01:00.904Z,97.20
2023-03-11T03:03:28.103Z,97.20
2023-03-11T03:05:55.062Z,97.10
2023-03-11T03:08:22.127Z,97.10
2023-03-11T03:10:49.057Z,97.10
2023-03-11T03:13:16.028Z,97.10
2023-03-11T03:15:42.959Z,97.20
2023-03-11T03:18:09.845Z,97.00
2023-03-11T03:20:36.764Z,97.10
2023-03-11T03:23:03.901Z,97.20
2023-03-11T03:25:32.488Z,97.20
2023-03-11T03:28:03.741Z,97.20
2023-03-11T03:30:33.607Z,97.20
2023-03-11T03:33:00.862Z,97.20
2023-03-11T03:35:29.331Z,97.20
2023-03-11T03:38:02.055Z,97.10
2023-03-11T03:40:29.105Z,97.10
2023-03-11T03:42:59.415Z,97.10
2023-03-11T03:45:27.314Z,97.10
2023-03-11T03:47:54.224Z,97.10
2023-03-11T03:50:23.697Z,97.10
2023-03-11T03:52:52.456Z,97.10
2023-03-11T03:55:21.112Z,97.10
2023-03-11T03:57:48.287Z,97.00
2023-03-11T04:00:16.397Z,97.00
2023-03-11T04:02:48.238Z,97.00
2023-03-11T04:05:26.773Z,97.00
2023-03-11T04:07:54.816Z,97.00
2023-03-11T04:10:22.633Z,97.00
2023-03-11T04:12:50.032Z,97.00
2023-03-11T04:15:17.410Z,97.10
2023-03-11T04:17:45.062Z,97.10
2023-03-11T04:20:13.030Z,97.10
2023-03-11T04:22:42.212Z,97.10
2023-03-11T04:25:09.366Z,97.10
2023-03-11T04:27:38.466Z,97.10
2023-03-11T04:30:07.848Z,97.10
2023-03-11T04:32:35.036Z,97.20
2023-03-11T04:35:04.918Z,97.30
2023-03-11T04:37:32.054Z,97.70
2023-03-11T04:39:59.192Z,97.40
2023-03-11T04:42:27.063Z,97.40
2023-03-11T04:44:54.344Z,97.40
2023-03-11T04:47:21.989Z,97.40
2023-03-11T04:49:49.201Z,97.40
2023-03-11T04:52:16.974Z,97.30
2023-03-11T04:54:43.915Z,97.40
2023-03-11T04:57:10.998Z,97.30
2023-03-11T04:59:41.634Z,97.30
2023-03-11T05:02:11.108Z,97.30
2023-03-11T05:04:42.160Z,97.30
2023-03-11T05:07:09.235Z,97.30
2023-03-11T05:09:36.310Z,97.30
2023-03-11T05:12:04.267Z,97.30
2023-03-11T05:14:32.603Z,97.30
2023-03-11T05:16:59.640Z,97.30
2023-03-11T05:19:35.057Z,97.30
2023-03-11T05:22:11.231Z,97.50
2023-03-11T05:24:38.288Z,97.50
2023-03-11T05:27:05.708Z,97.60
2023-03-11T05:29:34.134Z,97.70
2023-03-11T05:32:01.282Z,97.60
2023-03-11T05:34:28.402Z,97.50
2023-03-11T05:36:55.687Z,97.30
2023-03-11T05:39:23.778Z,96.90
2023-03-11T05:41:51.154Z,96.30
2023-03-11T05:44:18.317Z,96.30
2023-03-11T05:46:45.617Z,96.40
2023-03-11T05:49:12.539Z,96.40
2023-03-11T05:51:40.381Z,96.40
2023-03-11T05:54:15.001Z,96.30
2023-03-11T05:56:46.624Z,96.20
2023-03-11T05:59:16.613Z,96.10
2023-03-11T06:01:45.856Z,96.10
2023-03-11T06:04:13.324Z,96.20
2023-03-11T06:06:41.567Z,96.10
2023-03-11T06:09:15.576Z,96.10
2023-03-11T06:11:44.365Z,96.10
2023-03-11T06:14:14.272Z,96.10
2023-03-11T06:16:44.021Z,96.00
2023-03-11T06:19:12.583Z,96.00
2023-03-11T06:21:43.545Z,96.00
2023-03-11T06:24:10.409Z,96.00
2023-03-11T06:26:37.945Z,95.80
2023-03-11T06:29:04.984Z,95.50
2023-03-11T06:31:32.415Z,95.60
2023-03-11T06:34:06.303Z,95.50
2023-03-11T06:36:33.990Z,95.60
2023-03-11T06:39:00.895Z,95.50
2023-03-11T06:41:28.670Z,95.50
2023-03-11T06:43:59.720Z,95.40
2023-03-11T06:46:27.974Z,95.40
2023-03-11T06:48:57.412Z,95.30
2023-03-11T06:51:24.994Z,95.30
2023-03-11T06:53:54.873Z,95.20
2023-03-11T06:56:23.895Z,95.10
2023-03-11T06:58:56.243Z,95.20
2023-03-11T07:01:27.256Z,95.10
2023-03-11T07:03:55.978Z,95.10
2023-03-11T07:06:26.930Z,95.10
2023-03-11T07:09:00.683Z,95.20
2023-03-11T07:11:29.318Z,95.10
2023-03-11T07:14:03.470Z,95.00
2023-03-11T07:16:33.634Z,95.00
2023-03-11T07:19:07.671Z,94.90
2023-03-11T07:21:34.613Z,95.00
2023-03-11T07:24:03.505Z,94.70
2023-03-11T07:26:32.727Z,94.50
2023-03-11T07:29:00.457Z,94.50
2023-03-11T07:31:31.337Z,94.10
2023-03-11T07:34:01.488Z,93.90
2023-03-11T07:36:29.125Z,94.00
2023-03-11T07:39:04.225Z,94.00
2023-03-11T07:41:34.181Z,94.00
2023-03-11T07:44:03.124Z,93.80
2023-03-11T07:46:31.067Z,93.70
2023-03-11T07:48:58.034Z,93.90
2023-03-11T07:51:31.244Z,93.60
2023-03-11T07:53:59.752Z,93.50
2023-03-11T07:56:30.202Z,93.40
2023-03-11T07:58:59.113Z,92.90
2023-03-11T08:01:30.500Z,93.20
2023-03-11T08:03:58.826Z,92.90
2023-03-11T08:06:31.154Z,92.60
2023-03-11T08:08:59.973Z,92.70
2023-03-11T08:11:27.262Z,92.70
2023-03-11T08:13:54.447Z,92.70
2023-03-11T08:16:22.410Z,92.40
2023-03-11T08:18:51.075Z,92.30
2023-03-11T08:21:25.554Z,92.40
2023-03-11T08:23:53.248Z,92.40
2023-03-11T08:26:22.019Z,92.40
2023-03-11T08:28:50.019Z,92.30
2023-03-11T08:31:21.182Z,92.30
2023-03-11T08:33:50.258Z,92.50
2023-03-11T08:36:17.894Z,92.50
2023-03-11T08:38:44.827Z,92.40
2023-03-11T08:41:11.782Z,92.20
2023-03-11T08:43:38.674Z,92.20
2023-03-11T08:46:07.193Z,92.40
2023-03-11T08:48:36.454Z,92.50
2023-03-11T08:51:10.933Z,92.40
2023-03-11T08:53:37.916Z,92.40
2023-03-11T08:56:05.703Z,92.50
2023-03-11T08:58:32.739Z,92.50
2023-03-11T09:00:59.702Z,92.50
2023-03-11T09:03:26.850Z,92.40
2023-03-11T09:05:58.922Z,92.30
2023-03-11T09:08:26.126Z,92.20
2023-03-11T09:10:53.010Z,91.90
2023-03-11T09:13:20.215Z,91.80
2023-03-11T09:15:49.587Z,91.80
2023-03-11T09:18:17.566Z,92.00
2023-03-11T09:20:45.249Z,92.00
2023-03-11T09:23:15.316Z,92.10
2023-03-11T09:25:42.528Z,92.10
2023-03-11T09:28:09.488Z,92.00
2023-03-11T09:30:36.377Z,91.90
2023-03-11T09:33:03.291Z,91.90
2023-03-11T09:35:30.263Z,92.00
2023-03-11T09:37:57.603Z,92.20
2023-03-11T09:40:26.567Z,92.30
2023-03-11T09:42:59.515Z,92.10
2023-03-11T09:45:32.356Z,92.20
2023-03-11T09:48:36.300Z,92.10
2023-03-11T09:51:20.742Z,92.30
2023-03-11T09:53:55.426Z,92.30
2023-03-11T09:56:23.229Z,92.10
2023-03-11T09:58:52.855Z,92.20
2023-03-11T10:01:30.927Z,92.00
2023-03-11T10:04:12.524Z,91.30
2023-03-11T10:06:41.796Z,91.40
2023-03-11T10:09:41.001Z,90.80
2023-03-11T10:12:41.642Z,90.70
2023-03-11T10:15:48.986Z,91.00
2023-03-11T10:18:39.318Z,90.70
2023-03-11T10:21:30.774Z,90.50
2023-03-11T10:24:24.059Z,90.60
2023-03-11T10:26:59.096Z,89.50
2023-03-11T10:29:35.062Z,90.10
2023-03-11T10:32:16.190Z,90.40
2023-03-11T10:34:55.331Z,90.60
2023-03-11T10:37:46.210Z,90.40
2023-03-11T10:40:27.054Z,90.50
2023-03-11T10:42:57.583Z,90.60
2023-03-11T10:45:25.755Z,90.80
2023-03-11T10:47:52.643Z,90.90
2023-03-11T10:50:20.585Z,89.90
2023-03-11T10:53:23.252Z,90.10
2023-03-11T10:55:54.683Z,89.80
2023-03-11T10:58:30.718Z,88.90
2023-03-11T11:01:12.477Z,88.40
2023-03-11T11:03:42.969Z,87.40
2023-03-11T11:06:26.749Z,86.70
2023-03-11T11:09:20.996Z,86.10
2023-03-11T11:12:15.383Z,85.30
2023-03-11T11:14:51.442Z,85.90
2023-03-11T11:17:23.587Z,86.40
2023-03-11T11:19:52.350Z,86.30
2023-03-11T11:22:22.541Z,86.90
2023-03-11T11:24:52.379Z,86.90
2023-03-11T11:27:25.906Z,87.60
2023-03-11T11:30:08.823Z,87.70
2023-03-11T11:32:37.357Z,87.60
2023-03-11T11:35:11.783Z,87.50
2023-03-11T11:37:46.369Z,87.10
2023-03-11T11:40:16.598Z,87.70
2023-03-11T11:42:58.167Z,88.30
2023-03-11T11:45:37.994Z,88.80
2023-03-11T11:48:25.499Z,88.50
2023-03-11T11:50:57.372Z,88.20
2023-03-11T11:53:39.945Z,88.00
2023-03-11T11:56:06.919Z,86.90
2023-03-11T11:58:35.200Z,86.50
2023-03-11T12:01:35.175Z,86.80
2023-03-11T12:04:38.984Z,87.00
2023-03-11T12:07:29.874Z,87.30
2023-03-11T12:10:26.263Z,86.90
2023-03-11T12:13:43.989Z,87.40
2023-03-11T12:16:57.978Z,87.10
2023-03-11T12:19:53.566Z,86.10
2023-03-11T12:23:10.915Z,87.10
2023-03-11T12:25:55.723Z,87.00
2023-03-11T12:28:38.059Z,87.10
2023-03-11T12:31:10.578Z,87.20
2023-03-11T12:34:10.756Z,87.40
2023-03-11T12:36:43.824Z,86.80
2023-03-11T12:39:29.832Z,86.70
2023-03-11T12:42:11.845Z,87.30
2023-03-11T12:44:40.296Z,88.30
2023-03-11T12:47:21.274Z,87.10
2023-03-11T12:49:55.245Z,87.70
2023-03-11T12:52:26.586Z,86.50
2023-03-11T12:54:59.573Z,87.00
2023-03-11T12:57:35.728Z,86.80
2023-03-11T13:00:45.044Z,86.70
2023-03-11T13:03:46.630Z,86.90
2023-03-11T13:06:26.133Z,86.60
2023-03-11T13:08:55.858Z,85.40
2023-03-11T13:11:42.023Z,85.50
2023-03-11T13:14:27.413Z,86.40
2023-03-11T13:16:54.874Z,85.70
2023-03-11T13:19:35.163Z,85.90
2023-03-11T13:22:05.382Z,85.40
2023-03-11T13:24:32.140Z,85.30
2023-03-11T13:26:59.229Z,85.00
2023-03-11T13:30:18.776Z,85.10
2023-03-11T13:33:17.264Z,85.30
2023-03-11T13:36:14.868Z,83.40
2023-03-11T13:39:08.740Z,82.70
2023-03-11T13:41:37.490Z,82.00
2023-03-11T13:44:26.198Z,81.70
2023-03-11T13:47:05.946Z,82.00
2023-03-11T13:49:46.256Z,82.20
2023-03-11T13:52:26.387Z,81.10
2023-03-11T13:55:06.817Z,80.60
2023-03-11T13:57:38.121Z,81.40
2023-03-11T14:00:17.050Z,80.80
2023-03-11T14:02:51.215Z,81.40
2023-03-11T14:05:24.923Z,79.70
2023-03-11T14:07:51.885Z,79.90
2023-03-11T14:10:30.455Z,76.70
2023-03-11T14:13:14.854Z,76.30
2023-03-11T14:16:00.734Z,77.10
2023-03-11T14:18:40.774Z,78.10
2023-03-11T14:21:18.512Z,76.50
2023-03-11T14:23:48.960Z,77.80
2023-03-11T14:26:23.013Z,78.00
2023-03-11T14:28:53.879Z,76.20
2023-03-11T14:31:43.840Z,76.20
2023-03-11T14:34:10.714Z,76.40
2023-03-11T14:36:43.462Z,76.10
2023-03-11T14:39:23.736Z,74.90
2023-03-11T14:41:55.779Z,73.30
2023-03-11T14:44:24.617Z,73.30
2023-03-11T14:47:01.543Z,73.20
2023-03-11T14:49:28.515Z,73.40
2023-03-11T14:52:02.387Z,74.40
2023-03-11T14:54:33.872Z,74.20
2023-03-11T14:57:14.290Z,75.00
2023-03-11T14:59:41.740Z,75.00
2023-03-11T15:02:39.942Z,75.50
2023-03-11T15:05:21.768Z,75.00
2023-03-11T15:07:51.761Z,76.10
2023-03-11T15:10:18.711Z,75.90
2023-03-11T15:12:45.966Z,75.00
2023-03-11T15:15:28.630Z,75.80
2023-03-11T15:17:58.865Z,76.30
2023-03-11T15:20:33.656Z,76.10
2023-03-11T15:23:04.164Z,76.30
2023-03-11T15:25:38.137Z,76.80
2023-03-11T15:28:36.672Z,77.00
2023-03-11T15:31:31.311Z,76.70
2023-03-11T15:34:32.022Z,76.20
2023-03-11T15:37:19.277Z,76.60
2023-03-11T15:39:51.118Z,76.60
2023-03-11T15:42:25.123Z,76.40
2023-03-11T15:44:52.631Z,76.60
2023-03-11T15:47:22.796Z,76.80
2023-03-11T15:49:50.546Z,77.30
2023-03-11T15:52:19.316Z,77.70
2023-03-11T15:54:55.018Z,78.30
2023-03-11T15:57:28.338Z,78.60
2023-03-11T15:59:57.262Z,79.20
2023-03-11T16:02:28.471Z,79.50
2023-03-11T16:04:57.157Z,80.10
2023-03-11T16:07:38.534Z,80.60
2023-03-11T16:10:08.160Z,80.90
2023-03-11T16:12:35.225Z,81.00
2023-03-11T16:15:02.147Z,81.30
2023-03-11T16:17:42.995Z,81.10
2023-03-11T16:20:15.806Z,80.80
2023-03-11T16:22:42.749Z,81.00
2023-03-11T16:25:49.355Z,81.00
2023-03-11T16:28:17.405Z,80.80
2023-03-11T16:30:44.836Z,81.30
2023-03-11T16:33:11.825Z,81.60
2023-03-11T16:35:38.933Z,82.00
2023-03-11T16:38:08.239Z,82.10
2023-03-11T16:40:35.507Z,82.40
2023-03-11T16:43:09.135Z,82.50
2023-03-11T16:45:36.087Z,82.50
2023-03-11T16:48:03.902Z,82.70
2023-03-11T16:50:31.293Z,82.90
2023-03-11T16:52:58.706Z,83.10
2023-03-11T16:55:27.225Z,83.30
2023-03-11T16:57:55.942Z,83.40
2023-03-11T17:00:24.796Z,84.30
2023-03-11T17:02:52.134Z,83.70
2023-03-11T17:05:19.242Z,83.80
2023-03-11T17:07:46.193Z,83.90
2023-03-11T17:10:13.426Z,84.10
2023-03-11T17:12:40.632Z,84.40
2023-03-11T17:15:08.466Z,84.60
2023-03-11T17:17:35.548Z,85.00
2023-03-11T17:20:02.941Z,85.30
2023-03-11T17:22:29.831Z,85.70
2023-03-11T17:24:56.734Z,86.00
2023-03-11T17:27:23.748Z,86.30
2023-03-11T17:29:50.665Z,86.60
2023-03-11T17:32:17.833Z,86.90
2023-03-11T17:34:44.895Z,87.00
2023-03-11T17:37:12.060Z,87.30
2023-03-11T17:39:39.010Z,87.60
2023-03-11T17:42:06.051Z,87.90
2023-03-11T17:44:48.584Z,88.30
2023-03-11T17:47:19.616Z,88.90
2023-03-11T17:49:47.829Z,89.20
2023-03-11T17:52:14.821Z,89.50
2023-03-11T17:54:41.712Z,89.90
2023-03-11T17:57:08.641Z,90.10
2023-03-11T17:59:35.538Z,90.10
2023-03-11T18:02:02.540Z,90.30
2023-03-11T18:04:29.474Z,90.40
2023-03-11T18:06:56.714Z,90.50
2023-03-11T18:09:23.617Z,90.60
2023-03-11T18:11:50.522Z,90.60
2023-03-11T18:14:17.423Z,90.70
2023-03-11T18:16:44.338Z,90.80
2023-03-11T18:19:11.243Z,90.90
2023-03-11T18:21:38.118Z,90.90
2023-03-11T18:24:05.494Z,91.00
2023-03-11T18:26:32.558Z,91.10
2023-03-11T18:29:00.588Z,91.00
2023-03-11T18:31:29.710Z,91.00
2023-03-11T18:34:02.570Z,91.00
2023-03-11T18:36:34.621Z,91.00
2023-03-11T18:39:02.346Z,91.10
2023-03-11T18:41:33.116Z,91.10
2023-03-11T18:44:00.993Z,91.10
2023-03-11T18:46:31.625Z,91.10
2023-03-11T18:49:01.535Z,91.20
2023-03-11T18:51:30.797Z,91.30
2023-03-11T18:53:58.220Z,91.30
2023-03-11T18:56:25.099Z,91.40
2023-03-11T18:58:52.013Z,91.40
2023-03-11T19:01:21.229Z,91.60
2023-03-11T19:03:54.471Z,91.60
2023-03-11T19:06:22.921Z,91.60
2023-03-11T19:08:50.563Z,91.70
2023-03-11T19:11:20.547Z,91.70
2023-03-11T19:13:48.242Z,91.80
2023-03-11T19:16:19.769Z,92.20
2023-03-11T19:18:46.868Z,92.00
2023-03-11T19:21:15.512Z,92.00
2023-03-11T19:23:43.486Z,92.20
2023-03-11T19:26:10.598Z,92.20
2023-03-11T19:28:37.531Z,92.20
2023-03-11T19:31:05.408Z,92.20
2023-03-11T19:33:32.641Z,92.30
2023-03-11T19:36:02.943Z,92.30
2023-03-11T19:38:30.683Z,92.40
2023-03-11T19:41:07.701Z,92.40
2023-03-11T19:43:35.777Z,92.40
2023-03-11T19:46:08.233Z,92.50
2023-03-11T19:48:35.337Z,92.50
2023-03-11T19:51:02.647Z,92.50
2023-03-11T19:53:29.648Z,92.50
2023-03-11T19:55:58.178Z,92.50
2023-03-11T19:58:30.242Z,92.50
2023-03-11T20:00:58.812Z,92.50
2023-03-11T20:03:26.797Z,92.50
2023-03-11T20:05:56.737Z,92.60
2023-03-11T20:08:25.644Z,92.70
2023-03-11T20:10:53.404Z,92.70
2023-03-11T20:13:23.020Z,92.70
2023-03-11T20:15:50.320Z,92.90
2023-03-11T20:18:18.112Z,92.90
2023-03-11T20:20:46.794Z,92.90
2023-03-11T20:23:14.358Z,93.00
2023-03-11T20:25:42.307Z,93.00
2023-03-11T20:28:09.665Z,92.90
2023-03-11T20:30:38.833Z,92.90
2023-03-11T20:33:06.853Z,92.90
2023-03-11T20:35:34.195Z,92.90
2023-03-11T20:38:02.746Z,93.10
2023-03-11T20:40:29.899Z,93.20
2023-03-11T20:42:56.865Z,93.30
2023-03-11T20:45:23.832Z,93.40
2023-03-11T20:47:53.558Z,93.40
2023-03-11T20:50:21.839Z,93.40
2023-03-11T20:52:49.566Z,93.40
2023-03-11T20:55:16.611Z,93.30
2023-03-11T20:57:43.590Z,93.30
2023-03-11T21:00:13.232Z,93.50
2023-03-11T21:02:42.266Z,93.20
2023-03-11T21:05:10.392Z,93.20
2023-03-11T21:07:37.584Z,93.20
2023-03-11T21:10:12.388Z,93.20
2023-03-11T21:12:39.487Z,93.30
2023-03-11T21:15:08.807Z,93.30
2023-03-11T21:17:36.921Z,93.30
2023-03-11T21:20:07.007Z,93.30
2023-03-11T21:22:34.292Z,93.30
2023-03-11T21:25:01.259Z,93.30
2023-03-11T21:27:28.385Z,93.30
2023-03-11T21:29:56.559Z,93.30
2023-03-11T21:32:25.094Z,93.30
2023-03-11T21:34:59.466Z,93.20
2023-03-11T21:37:27.986Z,93.20
2023-03-11T21:39:55.130Z,93.10
2023-03-11T21:42:22.476Z,93.10
2023-03-11T21:44:51.313Z,93.10
2023-03-11T21:47:18.698Z,93.10
2023-03-11T21:49:45.691Z,93.10
2023-03-11T21:52:12.636Z,93.10
2023-03-11T21:54:39.663Z,93.10
2023-03-11T21:57:06.626Z,93.10
2023-03-11T21:59:33.570Z,93.10
2023-03-11T22:02:03.077Z,93.20
2023-03-11T22:04:31.285Z,93.10
2023-03-11T22:06:58.400Z,93.20
2023-03-11T22:09:26.283Z,93.20
2023-03-11T22:11:55.890Z,93.20
2023-03-11T22:14:23.061Z,93.20
2023-03-11T22:16:50.223Z,93.20
2023-03-11T22:19:17.297Z,93.20
2023-03-11T22:21:44.260Z,93.20
2023-03-11T22:24:11.290Z,93.20
2023-03-11T22:26:38.185Z,93.30
2023-03-11T22:29:08.587Z,93.30
2023-03-11T22:31:35.800Z,93.40
2023-03-11T22:34:02.703Z,93.40
2023-03-11T22:36:29.614Z,93.50
2023-03-11T22:38:56.908Z,93.60
2023-03-11T22:41:24.145Z,93.50
2023-03-11T22:43:51.023Z,93.50
2023-03-11T22:46:17.966Z,93.50
2023-03-11T22:48:44.890Z,93.50
2023-03-11T22:51:11.858Z,93.50
2023-03-11T22:53:38.872Z,93.50
2023-03-11T22:56:13.198Z,93.70
2023-03-11T22:58:40.205Z,93.70
2023-03-11T23:01:07.357Z,93.70
2023-03-11T23:03:35.506Z,93.70
2023-03-11T23:06:07.161Z,93.70
2023-03-11T23:08:34.211Z,93.70
2023-03-11T23:11:08.102Z,93.60
2023-03-11T23:13:38.026Z,93.70
2023-03-11T23:16:12.318Z,93.70
2023-03-11T23:18:39.398Z,93.70
2023-03-11T23:21:32.288Z,93.70
2023-03-11T23:24:01.695Z,93.80
2023-03-11T23:26:29.899Z,93.80
2023-03-11T23:28:56.822Z,93.90
2023-03-11T23:31:25.679Z,93.90
2023-03-11T23:33:52.638Z,94.00
2023-03-11T23:36:21.940Z,94.00
2023-03-11T23:38:50.848Z,94.10
2023-03-11T23:41:23.704Z,94.20
2023-03-11T23:43:50.937Z,94.20
2023-03-11T23:46:18.021Z,94.20
2023-03-11T23:48:44.932Z,94.30
2023-03-11T23:51:11.833Z,94.30
2023-03-11T23:53:39.700Z,94.30
2023-03-11T23:56:16.899Z,94.40
2023-03-11T23:58:44.810Z,94.40
